sensor_id;sensor_type;location;lat;lon;timestamp;P1;durP1;ratioP1;P2;durP2;ratioP2
15049;SDS011;7622;42.724;23.250;2023-03-12T00:00:48;2.63;;;2.30;;
15049;SDS011;7622;42.724;23.250;2023-03-12T00:03:15;6.80;;;3.13;;
15049;SDS011;7622;42.724;23.250;2023-03-12T00:05:42;2.43;;;2.23;;
15049;SDS011;7622;42.724;23.250;2023-03-12T00:08:12;7.87;;;3.00;;
15049;SDS011;7622;42.724;23.250;2023-03-12T00:10:40;3.90;;;2.50;;
15049;SDS011;7622;42.724;23.250;2023-03-12T00:13:07;9.10;;;2.67;;
15049;SDS011;7622;42.724;23.250;2023-03-12T00:15:36;5.83;;;3.10;;
15049;SDS011;7622;42.724;23.250;2023-03-12T00:18:04;5.47;;;2.77;;
15049;SDS011;7622;42.724;23.250;2023-03-12T00:20:31;4.03;;;2.87;;
15049;SDS011;7622;42.724;23.250;2023-03-12T00:22:58;4.13;;;2.90;;
15049;SDS011;7622;42.724;23.250;2023-03-12T00:25:25;4.37;;;2.90;;
15049;SDS011;7622;42.724;23.250;2023-03-12T00:27:51;3.77;;;3.13;;
15049;SDS011;7622;42.724;23.250;2023-03-12T00:30:18;3.23;;;3.03;;
15049;SDS011;7622;42.724;23.250;2023-03-12T00:32:46;3.60;;;3.30;;
15049;SDS011;7622;42.724;23.250;2023-03-12T00:35:13;7.40;;;3.20;;
15049;SDS011;7622;42.724;23.250;2023-03-12T00:37:40;3.63;;;3.30;;
15049;SDS011;7622;42.724;23.250;2023-03-12T00:40:07;2.93;;;2.73;;
15049;SDS011;7622;42.724;23.250;2023-03-12T00:42:35;3.77;;;3.27;;
15049;SDS011;7622;42.724;23.250;2023-03-12T00:45:02;5.60;;;3.77;;
15049;SDS011;7622;42.724;23.250;2023-03-12T00:47:29;3.70;;;3.40;;
15049;SDS011;7622;42.724;23.250;2023-03-12T00:49:57;3.97;;;3.67;;
15049;SDS011;7622;42.724;23.250;2023-03-12T00:52:24;3.87;;;3.50;;
15049;SDS011;7622;42.724;23.250;2023-03-12T00:54:51;4.07;;;3.20;;
15049;SDS011;7622;42.724;23.250;2023-03-12T00:57:22;7.23;;;3.33;;
15049;SDS011;7622;42.724;23.250;2023-03-12T00:59:49;4.83;;;3.67;;
15049;SDS011;7622;42.724;23.250;2023-03-12T01:02:15;4.93;;;3.13;;
15049;SDS011;7622;42.724;23.250;2023-03-12T01:04:44;3.57;;;3.27;;
15049;SDS011;7622;42.724;23.250;2023-03-12T01:07:13;3.60;;;3.40;;
15049;SDS011;7622;42.724;23.250;2023-03-12T01:09:39;3.73;;;3.43;;
15049;SDS011;7622;42.724;23.250;2023-03-12T01:12:06;4.00;;;3.70;;
15049;SDS011;7622;42.724;23.250;2023-03-12T01:14:33;6.07;;;3.00;;
15049;SDS011;7622;42.724;23.250;2023-03-12T01:17:00;5.73;;;3.70;;
15049;SDS011;7622;42.724;23.250;2023-03-12T01:19:27;3.70;;;3.40;;
15049;SDS011;7622;42.724;23.250;2023-03-12T01:21:54;3.93;;;3.27;;
15049;SDS011;7622;42.724;23.250;2023-03-12T01:24:22;4.90;;;3.30;;
15049;SDS011;7622;42.724;23.250;2023-03-12T01:26:48;3.83;;;3.53;;
15049;SDS011;7622;42.724;23.250;2023-03-12T01:29:15;3.53;;;3.33;;
15049;SDS011;7622;42.724;23.250;2023-03-12T01:31:42;5.37;;;4.80;;
15049;SDS011;7622;42.724;23.250;2023-03-12T01:34:09;5.97;;;4.33;;
15049;SDS011;7622;42.724;23.250;2023-03-12T01:36:36;4.00;;;3.60;;
15049;SDS011;7622;42.724;23.250;2023-03-12T01:39:03;4.33;;;4.03;;
15049;SDS011;7622;42.724;23.250;2023-03-12T01:41:32;3.53;;;3.30;;
15049;SDS011;7622;42.724;23.250;2023-03-12T01:43:58;3.73;;;3.43;;
15049;SDS011;7622;42.724;23.250;2023-03-12T01:46:28;4.77;;;3.97;;
15049;SDS011;7622;42.724;23.250;2023-03-12T01:48:58;4.37;;;3.97;;
15049;SDS011;7622;42.724;23.250;2023-03-12T01:51:29;4.20;;;3.90;;
15049;SDS011;7622;42.724;23.250;2023-03-12T01:54:01;4.10;;;3.77;;
15049;SDS011;7622;42.724;23.250;2023-03-12T01:56:33;5.07;;;3.70;;
15049;SDS011;7622;42.724;23.250;2023-03-12T01:59:02;8.30;;;4.40;;
15049;SDS011;7622;42.724;23.250;2023-03-12T02:01:33;3.50;;;3.30;;
15049;SDS011;7622;42.724;23.250;2023-03-12T02:04:00;5.43;;;3.90;;
15049;SDS011;7622;42.724;23.250;2023-03-12T02:06:29;9.30;;;4.43;;
15049;SDS011;7622;42.724;23.250;2023-03-12T02:09:00;4.57;;;3.50;;
15049;SDS011;7622;42.724;23.250;2023-03-12T02:11:28;3.80;;;3.53;;
15049;SDS011;7622;42.724;23.250;2023-03-12T02:13:56;4.17;;;3.87;;
15049;SDS011;7622;42.724;23.250;2023-03-12T02:16:23;4.00;;;3.70;;
15049;SDS011;7622;42.724;23.250;2023-03-12T02:18:51;5.87;;;4.27;;
15049;SDS011;7622;42.724;23.250;2023-03-12T02:21:21;4.97;;;4.10;;
15049;SDS011;7622;42.724;23.250;2023-03-12T02:23:51;4.43;;;4.03;;
15049;SDS011;7622;42.724;23.250;2023-03-12T02:26:25;3.93;;;3.63;;
15049;SDS011;7622;42.724;23.250;2023-03-12T02:28:54;3.90;;;3.30;;
15049;SDS011;7622;42.724;23.250;2023-03-12T02:31:23;6.10;;;3.80;;
15049;SDS011;7622;42.724;23.250;2023-03-12T02:33:51;3.83;;;2.97;;
15049;SDS011;7622;42.724;23.250;2023-03-12T02:36:20;4.63;;;3.63;;
15049;SDS011;7622;42.724;23.250;2023-03-12T02:38:47;3.67;;;3.43;;
15049;SDS011;7622;42.724;23.250;2023-03-12T02:41:17;7.07;;;3.80;;
15049;SDS011;7622;42.724;23.250;2023-03-12T02:43:48;4.17;;;3.50;;
15049;SDS011;7622;42.724;23.250;2023-03-12T02:46:22;3.80;;;3.57;;
15049;SDS011;7622;42.724;23.250;2023-03-12T02:48:48;4.57;;;4.03;;
15049;SDS011;7622;42.724;23.250;2023-03-12T02:51:16;4.07;;;3.10;;
15049;SDS011;7622;42.724;23.250;2023-03-12T02:53:43;4.10;;;3.80;;
15049;SDS011;7622;42.724;23.250;2023-03-12T02:56:10;4.30;;;3.17;;
15049;SDS011;7622;42.724;23.250;2023-03-12T02:58:37;3.97;;;3.67;;
15049;SDS011;7622;42.724;23.250;2023-03-12T03:01:05;3.90;;;3.53;;
15049;SDS011;7622;42.724;23.250;2023-03-12T03:03:32;6.73;;;3.97;;
15049;SDS011;7622;42.724;23.250;2023-03-12T03:05:58;6.63;;;3.40;;
15049;SDS011;7622;42.724;23.250;2023-03-12T03:08:25;4.53;;;3.90;;
15049;SDS011;7622;42.724;23.250;2023-03-12T03:10:52;3.47;;;3.17;;
15049;SDS011;7622;42.724;23.250;2023-03-12T03:13:19;4.37;;;4.00;;
15049;SDS011;7622;42.724;23.250;2023-03-12T03:15:46;4.67;;;3.20;;
15049;SDS011;7622;42.724;23.250;2023-03-12T03:18:14;3.63;;;3.23;;
15049;SDS011;7622;42.724;23.250;2023-03-12T03:20:40;4.50;;;3.53;;
15049;SDS011;7622;42.724;23.250;2023-03-12T03:23:08;5.13;;;3.70;;
15049;SDS011;7622;42.724;23.250;2023-03-12T03:25:35;4.17;;;3.87;;
15049;SDS011;7622;42.724;23.250;2023-03-12T03:28:02;4.67;;;3.93;;
15049;SDS011;7622;42.724;23.250;2023-03-12T03:30:29;3.93;;;3.60;;
15049;SDS011;7622;42.724;23.250;2023-03-12T03:32:56;7.30;;;3.90;;
15049;SDS011;7622;42.724;23.250;2023-03-12T03:35:24;5.67;;;3.67;;
15049;SDS011;7622;42.724;23.250;2023-03-12T03:37:51;4.00;;;3.47;;
15049;SDS011;7622;42.724;23.250;2023-03-12T03:40:18;4.40;;;4.00;;
15049;SDS011;7622;42.724;23.250;2023-03-12T03:42:45;4.00;;;3.70;;
15049;SDS011;7622;42.724;23.250;2023-03-12T03:45:11;5.07;;;4.10;;
15049;SDS011;7622;42.724;23.250;2023-03-12T03:47:38;4.73;;;4.10;;
15049;SDS011;7622;42.724;23.250;2023-03-12T03:50:05;4.37;;;3.60;;
15049;SDS011;7622;42.724;23.250;2023-03-12T03:52:34;4.40;;;4.00;;
15049;SDS011;7622;42.724;23.250;2023-03-12T03:55:00;5.70;;;3.53;;
15049;SDS011;7622;42.724;23.250;2023-03-12T03:57:27;9.50;;;3.87;;
15049;SDS011;7622;42.724;23.250;2023-03-12T03:59:54;3.60;;;3.30;;
15049;SDS011;7622;42.724;23.250;2023-03-12T04:02:23;3.90;;;3.50;;
15049;SDS011;7622;42.724;23.250;2023-03-12T04:04:50;3.33;;;3.03;;
15049;SDS011;7622;42.724;23.250;2023-03-12T04:07:17;3.60;;;3.20;;
15049;SDS011;7622;42.724;23.250;2023-03-12T04:09:46;2.97;;;2.77;;
15049;SDS011;7622;42.724;23.250;2023-03-12T04:12:13;3.17;;;2.87;;
15049;SDS011;7622;42.724;23.250;2023-03-12T04:14:40;3.03;;;2.83;;
15049;SDS011;7622;42.724;23.250;2023-03-12T04:17:07;2.83;;;2.70;;
15049;SDS011;7622;42.724;23.250;2023-03-12T04:19:35;2.97;;;2.77;;
15049;SDS011;7622;42.724;23.250;2023-03-12T04:22:01;3.07;;;2.33;;
15049;SDS011;7622;42.724;23.250;2023-03-12T04:24:28;3.67;;;3.07;;
15049;SDS011;7622;42.724;23.250;2023-03-12T04:26:57;2.70;;;2.50;;
15049;SDS011;7622;42.724;23.250;2023-03-12T04:29:24;3.33;;;2.50;;
15049;SDS011;7622;42.724;23.250;2023-03-12T04:31:51;2.33;;;2.17;;
15049;SDS011;7622;42.724;23.250;2023-03-12T04:34:18;2.30;;;2.10;;
15049;SDS011;7622;42.724;23.250;2023-03-12T04:36:44;2.33;;;2.13;;
15049;SDS011;7622;42.724;23.250;2023-03-12T04:39:12;2.10;;;2.00;;
15049;SDS011;7622;42.724;23.250;2023-03-12T04:41:39;2.70;;;2.20;;
15049;SDS011;7622;42.724;23.250;2023-03-12T04:44:07;2.27;;;2.03;;
15049;SDS011;7622;42.724;23.250;2023-03-12T04:46:34;2.93;;;2.07;;
15049;SDS011;7622;42.724;23.250;2023-03-12T04:49:01;2.40;;;2.20;;
15049;SDS011;7622;42.724;23.250;2023-03-12T04:51:28;5.20;;;2.10;;
15049;SDS011;7622;42.724;23.250;2023-03-12T04:53:55;3.00;;;2.40;;
15049;SDS011;7622;42.724;23.250;2023-03-12T04:56:22;2.97;;;2.10;;
15049;SDS011;7622;42.724;23.250;2023-03-12T04:58:50;6.03;;;2.20;;
15049;SDS011;7622;42.724;23.250;2023-03-12T05:01:25;4.37;;;2.37;;
15049;SDS011;7622;42.724;23.250;2023-03-12T05:03:53;2.37;;;2.17;;
15049;SDS011;7622;42.724;23.250;2023-03-12T05:06:20;2.27;;;2.17;;
15049;SDS011;7622;42.724;23.250;2023-03-12T05:08:49;2.00;;;1.90;;
15049;SDS011;7622;42.724;23.250;2023-03-12T05:11:16;4.10;;;2.50;;
15049;SDS011;7622;42.724;23.250;2023-03-12T05:13:43;2.27;;;2.07;;
15049;SDS011;7622;42.724;23.250;2023-03-12T05:16:11;1.97;;;1.87;;
15049;SDS011;7622;42.724;23.250;2023-03-12T05:18:39;3.50;;;2.20;;
15049;SDS011;7622;42.724;23.250;2023-03-12T05:21:07;8.37;;;3.13;;
15049;SDS011;7622;42.724;23.250;2023-03-12T05:23:37;2.57;;;2.37;;
15049;SDS011;7622;42.724;23.250;2023-03-12T05:26:06;3.60;;;2.80;;
15049;SDS011;7622;42.724;23.250;2023-03-12T05:28:33;3.50;;;3.20;;
15049;SDS011;7622;42.724;23.250;2023-03-12T05:31:00;3.73;;;3.27;;
15049;SDS011;7622;42.724;23.250;2023-03-12T05:33:27;6.87;;;3.53;;
15049;SDS011;7622;42.724;23.250;2023-03-12T05:35:55;3.77;;;3.47;;
15049;SDS011;7622;42.724;23.250;2023-03-12T05:38:22;4.47;;;3.27;;
15049;SDS011;7622;42.724;23.250;2023-03-12T05:40:52;5.20;;;3.37;;
15049;SDS011;7622;42.724;23.250;2023-03-12T05:43:19;3.53;;;2.97;;
15049;SDS011;7622;42.724;23.250;2023-03-12T05:45:46;4.53;;;3.93;;
15049;SDS011;7622;42.724;23.250;2023-03-12T05:48:14;3.30;;;2.60;;
15049;SDS011;7622;42.724;23.250;2023-03-12T05:50:41;2.53;;;2.17;;
15049;SDS011;7622;42.724;23.250;2023-03-12T05:53:10;2.33;;;2.00;;
15049;SDS011;7622;42.724;23.250;2023-03-12T05:55:37;3.63;;;2.50;;
15049;SDS011;7622;42.724;23.250;2023-03-12T05:58:05;2.07;;;1.97;;
15049;SDS011;7622;42.724;23.250;2023-03-12T06:00:33;3.00;;;1.90;;
15049;SDS011;7622;42.724;23.250;2023-03-12T06:03:02;1.90;;;1.80;;
15049;SDS011;7622;42.724;23.250;2023-03-12T06:05:29;2.30;;;2.10;;
15049;SDS011;7622;42.724;23.250;2023-03-12T06:07:56;1.80;;;1.70;;
15049;SDS011;7622;42.724;23.250;2023-03-12T06:10:25;2.10;;;2.00;;
15049;SDS011;7622;42.724;23.250;2023-03-12T06:12:52;4.37;;;1.83;;
15049;SDS011;7622;42.724;23.250;2023-03-12T06:15:19;2.60;;;2.43;;
15049;SDS011;7622;42.724;23.250;2023-03-12T06:17:46;1.60;;;1.50;;
15049;SDS011;7622;42.724;23.250;2023-03-12T06:20:12;2.47;;;2.13;;
15049;SDS011;7622;42.724;23.250;2023-03-12T06:22:39;2.30;;;2.10;;
15049;SDS011;7622;42.724;23.250;2023-03-12T06:25:06;3.43;;;1.80;;
15049;SDS011;7622;42.724;23.250;2023-03-12T06:27:35;1.90;;;1.80;;
15049;SDS011;7622;42.724;23.250;2023-03-12T06:30:02;3.70;;;1.70;;
15049;SDS011;7622;42.724;23.250;2023-03-12T06:32:29;1.73;;;1.63;;
15049;SDS011;7622;42.724;23.250;2023-03-12T06:34:56;1.77;;;1.67;;
15049;SDS011;7622;42.724;23.250;2023-03-12T06:37:24;1.90;;;1.80;;
15049;SDS011;7622;42.724;23.250;2023-03-12T06:39:51;1.80;;;1.70;;
15049;SDS011;7622;42.724;23.250;2023-03-12T06:42:18;3.17;;;1.80;;
15049;SDS011;7622;42.724;23.250;2023-03-12T06:44:48;7.33;;;2.07;;
15049;SDS011;7622;42.724;23.250;2023-03-12T06:47:14;1.80;;;1.70;;
15049;SDS011;7622;42.724;23.250;2023-03-12T06:49:41;1.73;;;1.63;;
15049;SDS011;7622;42.724;23.250;2023-03-12T06:52:08;2.40;;;2.17;;
15049;SDS011;7622;42.724;23.250;2023-03-12T06:54:35;1.80;;;1.70;;
15049;SDS011;7622;42.724;23.250;2023-03-12T06:57:02;2.20;;;2.00;;
15049;SDS011;7622;42.724;23.250;2023-03-12T06:59:29;2.03;;;1.87;;
15049;SDS011;7622;42.724;23.250;2023-03-12T07:01:57;2.23;;;2.07;;
15049;SDS011;7622;42.724;23.250;2023-03-12T07:04:24;1.60;;;1.50;;
15049;SDS011;7622;42.724;23.250;2023-03-12T07:06:50;3.53;;;1.90;;
15049;SDS011;7622;42.724;23.250;2023-03-12T07:09:17;1.97;;;1.87;;
15049;SDS011;7622;42.724;23.250;2023-03-12T07:11:45;1.80;;;1.70;;
15049;SDS011;7622;42.724;23.250;2023-03-12T07:14:12;2.00;;;1.90;;
15049;SDS011;7622;42.724;23.250;2023-03-12T07:16:39;2.30;;;1.93;;
15049;SDS011;7622;42.724;23.250;2023-03-12T07:19:07;2.03;;;1.93;;
15049;SDS011;7622;42.724;23.250;2023-03-12T07:21:35;2.37;;;2.17;;
15049;SDS011;7622;42.724;23.250;2023-03-12T07:24:02;5.00;;;2.30;;
15049;SDS011;7622;42.724;23.250;2023-03-12T07:26:31;6.67;;;2.37;;
15049;SDS011;7622;42.724;23.250;2023-03-12T07:28:59;2.07;;;1.87;;
15049;SDS011;7622;42.724;23.250;2023-03-12T07:31:25;4.03;;;2.00;;
15049;SDS011;7622;42.724;23.250;2023-03-12T07:33:52;1.67;;;1.57;;
15049;SDS011;7622;42.724;23.250;2023-03-12T07:36:20;2.23;;;2.03;;
15049;SDS011;7622;42.724;23.250;2023-03-12T07:38:47;2.00;;;1.90;;
15049;SDS011;7622;42.724;23.250;2023-03-12T07:41:14;2.00;;;1.90;;
15049;SDS011;7622;42.724;23.250;2023-03-12T07:43:41;2.10;;;1.93;;
15049;SDS011;7622;42.724;23.250;2023-03-12T07:46:07;3.17;;;2.17;;
15049;SDS011;7622;42.724;23.250;2023-03-12T07:48:34;2.30;;;2.10;;
15049;SDS011;7622;42.724;23.250;2023-03-12T07:51:01;3.27;;;2.30;;
15049;SDS011;7622;42.724;23.250;2023-03-12T07:53:29;2.93;;;2.30;;
15049;SDS011;7622;42.724;23.250;2023-03-12T07:55:56;2.03;;;1.90;;
15049;SDS011;7622;42.724;23.250;2023-03-12T07:58:23;5.27;;;2.30;;
15049;SDS011;7622;42.724;23.250;2023-03-12T08:00:49;2.40;;;2.20;;
15049;SDS011;7622;42.724;23.250;2023-03-12T08:03:17;2.10;;;2.00;;
15049;SDS011;7622;42.724;23.250;2023-03-12T08:05:44;1.90;;;1.80;;
15049;SDS011;7622;42.724;23.250;2023-03-12T08:08:11;3.77;;;2.00;;
15049;SDS011;7622;42.724;23.250;2023-03-12T08:10:39;2.37;;;2.17;;
15049;SDS011;7622;42.724;23.250;2023-03-12T08:13:06;1.93;;;1.83;;
15049;SDS011;7622;42.724;23.250;2023-03-12T08:15:32;1.97;;;1.87;;
15049;SDS011;7622;42.724;23.250;2023-03-12T08:17:59;3.53;;;2.30;;
15049;SDS011;7622;42.724;23.250;2023-03-12T08:20:26;3.47;;;2.00;;
15049;SDS011;7622;42.724;23.250;2023-03-12T08:22:53;3.83;;;1.87;;
15049;SDS011;7622;42.724;23.250;2023-03-12T08:25:19;3.70;;;1.80;;
15049;SDS011;7622;42.724;23.250;2023-03-12T08:27:50;1.63;;;1.53;;
15049;SDS011;7622;42.724;23.250;2023-03-12T08:30:18;3.20;;;2.03;;
15049;SDS011;7622;42.724;23.250;2023-03-12T08:32:47;3.97;;;2.27;;
15049;SDS011;7622;42.724;23.250;2023-03-12T08:35:16;3.07;;;1.77;;
15049;SDS011;7622;42.724;23.250;2023-03-12T08:37:43;1.73;;;1.63;;
15049;SDS011;7622;42.724;23.250;2023-03-12T08:40:10;2.00;;;1.90;;
15049;SDS011;7622;42.724;23.250;2023-03-12T08:42:37;2.17;;;2.07;;
15049;SDS011;7622;42.724;23.250;2023-03-12T08:45:07;2.40;;;2.20;;
15049;SDS011;7622;42.724;23.250;2023-03-12T08:47:34;2.53;;;1.83;;
15049;SDS011;7622;42.724;23.250;2023-03-12T08:50:01;2.10;;;2.00;;
15049;SDS011;7622;42.724;23.250;2023-03-12T08:52:28;4.67;;;2.53;;
15049;SDS011;7622;42.724;23.250;2023-03-12T08:54:55;3.00;;;1.77;;
15049;SDS011;7622;42.724;23.250;2023-03-12T08:57:22;2.63;;;2.10;;
15049;SDS011;7622;42.724;23.250;2023-03-12T08:59:48;2.67;;;2.47;;
15049;SDS011;7622;42.724;23.250;2023-03-12T09:02:16;5.03;;;2.37;;
15049;SDS011;7622;42.724;23.250;2023-03-12T09:04:46;3.53;;;2.33;;
15049;SDS011;7622;42.724;23.250;2023-03-12T09:07:15;2.10;;;2.00;;
15049;SDS011;7622;42.724;23.250;2023-03-12T09:09:44;2.63;;;2.43;;
15049;SDS011;7622;42.724;23.250;2023-03-12T09:12:11;2.03;;;1.80;;
15049;SDS011;7622;42.724;23.250;2023-03-12T09:14:38;2.23;;;2.07;;
15049;SDS011;7622;42.724;23.250;2023-03-12T09:17:05;2.63;;;2.17;;
15049;SDS011;7622;42.724;23.250;2023-03-12T09:19:34;2.87;;;2.43;;
15049;SDS011;7622;42.724;23.250;2023-03-12T09:22:00;2.90;;;2.70;;
15049;SDS011;7622;42.724;23.250;2023-03-12T09:24:27;3.87;;;2.60;;
15049;SDS011;7622;42.724;23.250;2023-03-12T09:26:54;4.33;;;3.70;;
15049;SDS011;7622;42.724;23.250;2023-03-12T09:29:21;3.13;;;2.83;;
15049;SDS011;7622;42.724;23.250;2023-03-12T09:31:48;2.53;;;2.33;;
15049;SDS011;7622;42.724;23.250;2023-03-12T09:34:15;2.40;;;2.20;;
15049;SDS011;7622;42.724;23.250;2023-03-12T09:36:43;4.97;;;1.97;;
15049;SDS011;7622;42.724;23.250;2023-03-12T09:39:10;2.50;;;2.30;;
15049;SDS011;7622;42.724;23.250;2023-03-12T09:41:38;2.30;;;2.10;;
15049;SDS011;7622;42.724;23.250;2023-03-12T09:44:09;2.57;;;2.00;;
15049;SDS011;7622;42.724;23.250;2023-03-12T09:46:43;2.63;;;2.10;;
15049;SDS011;7622;42.724;23.250;2023-03-12T09:49:16;2.43;;;2.30;;
15049;SDS011;7622;42.724;23.250;2023-03-12T09:51:48;2.60;;;2.40;;
15049;SDS011;7622;42.724;23.250;2023-03-12T09:54:21;3.27;;;2.97;;
15049;SDS011;7622;42.724;23.250;2023-03-12T09:56:53;2.70;;;2.20;;
15049;SDS011;7622;42.724;23.250;2023-03-12T09:59:23;2.30;;;2.10;;
15049;SDS011;7622;42.724;23.250;2023-03-12T10:01:50;3.50;;;1.90;;
15049;SDS011;7622;42.724;23.250;2023-03-12T10:04:26;2.27;;;2.07;;
15049;SDS011;7622;42.724;23.250;2023-03-12T10:07:04;1.73;;;1.63;;
15049;SDS011;7622;42.724;23.250;2023-03-12T10:12:33;2.53;;;1.90;;
15049;SDS011;7622;42.724;23.250;2023-03-12T10:15:13;1.93;;;1.83;;
15049;SDS011;7622;42.724;23.250;2023-03-12T10:17:53;2.27;;;2.17;;
15049;SDS011;7622;42.724;23.250;2023-03-12T10:20:40;2.50;;;2.30;;
15049;SDS011;7622;42.724;23.250;2023-03-12T10:23:31;3.93;;;2.43;;
15049;SDS011;7622;42.724;23.250;2023-03-12T10:26:09;3.70;;;2.00;;
15049;SDS011;7622;42.724;23.250;2023-03-12T10:28:41;2.97;;;1.60;;
15049;SDS011;7622;42.724;23.250;2023-03-12T10:31:12;1.83;;;1.73;;
15049;SDS011;7622;42.724;23.250;2023-03-12T10:33:46;7.13;;;2.10;;
15049;SDS011;7622;42.724;23.250;2023-03-12T10:36:17;2.30;;;2.20;;
15049;SDS011;7622;42.724;23.250;2023-03-12T10:38:47;2.20;;;2.10;;
15049;SDS011;7622;42.724;23.250;2023-03-12T10:41:14;2.57;;;2.30;;
15049;SDS011;7622;42.724;23.250;2023-03-12T10:43:42;2.37;;;2.27;;
15049;SDS011;7622;42.724;23.250;2023-03-12T10:46:17;2.10;;;2.00;;
15049;SDS011;7622;42.724;23.250;2023-03-12T10:52:06;2.20;;;2.10;;
15049;SDS011;7622;42.724;23.250;2023-03-12T10:54:43;1.77;;;1.67;;
15049;SDS011;7622;42.724;23.250;2023-03-12T10:57:11;2.00;;;1.90;;
15049;SDS011;7622;42.724;23.250;2023-03-12T10:59:40;6.60;;;2.10;;
15049;SDS011;7622;42.724;23.250;2023-03-12T11:05:17;2.20;;;2.00;;
15049;SDS011;7622;42.724;23.250;2023-03-12T11:07:45;1.77;;;1.67;;
15049;SDS011;7622;42.724;23.250;2023-03-12T11:10:21;2.00;;;1.90;;
15049;SDS011;7622;42.724;23.250;2023-03-12T11:12:57;3.13;;;2.40;;
15049;SDS011;7622;42.724;23.250;2023-03-12T11:15:27;2.63;;;1.70;;
15049;SDS011;7622;42.724;23.250;2023-03-12T11:21:11;3.50;;;2.90;;
15049;SDS011;7622;42.724;23.250;2023-03-12T11:23:41;2.80;;;2.10;;
15049;SDS011;7622;42.724;23.250;2023-03-12T11:26:15;2.40;;;2.20;;
15049;SDS011;7622;42.724;23.250;2023-03-12T11:28:45;1.93;;;1.80;;
15049;SDS011;7622;42.724;23.250;2023-03-12T11:31:15;1.63;;;1.53;;
15049;SDS011;7622;42.724;23.250;2023-03-12T11:33:47;3.53;;;2.07;;
15049;SDS011;7622;42.724;23.250;2023-03-12T11:36:18;2.73;;;2.57;;
15049;SDS011;7622;42.724;23.250;2023-03-12T11:38:56;4.20;;;2.43;;
15049;SDS011;7622;42.724;23.250;2023-03-12T11:41:35;1.63;;;1.50;;
15049;SDS011;7622;42.724;23.250;2023-03-12T11:44:14;1.80;;;1.70;;
15049;SDS011;7622;42.724;23.250;2023-03-12T11:46:49;1.70;;;1.60;;
15049;SDS011;7622;42.724;23.250;2023-03-12T11:49:47;2.00;;;1.90;;
15049;SDS011;7622;42.724;23.250;2023-03-12T11:52:34;2.33;;;2.10;;
15049;SDS011;7622;42.724;23.250;2023-03-12T11:55:34;2.63;;;1.97;;
15049;SDS011;7622;42.724;23.250;2023-03-12T11:58:15;2.67;;;2.47;;
15049;SDS011;7622;42.724;23.250;2023-03-12T12:00:54;1.77;;;1.67;;
15049;SDS011;7622;42.724;23.250;2023-03-12T12:03:33;2.90;;;2.30;;
15049;SDS011;7622;42.724;23.250;2023-03-12T12:06:19;2.97;;;2.10;;
15049;SDS011;7622;42.724;23.250;2023-03-12T12:09:01;2.57;;;2.00;;
15049;SDS011;7622;42.724;23.250;2023-03-12T12:11:43;3.23;;;1.97;;
15049;SDS011;7622;42.724;23.250;2023-03-12T12:14:24;1.90;;;1.80;;
15049;SDS011;7622;42.724;23.250;2023-03-12T12:17:04;1.83;;;1.73;;
15049;SDS011;7622;42.724;23.250;2023-03-12T12:19:46;1.97;;;1.80;;
15049;SDS011;7622;42.724;23.250;2023-03-12T12:22:28;1.83;;;1.73;;
15049;SDS011;7622;42.724;23.250;2023-03-12T12:25:20;2.00;;;1.90;;
15049;SDS011;7622;42.724;23.250;2023-03-12T12:27:53;2.00;;;1.87;;
15049;SDS011;7622;42.724;23.250;2023-03-12T12:30:36;1.93;;;1.83;;
15049;SDS011;7622;42.724;23.250;2023-03-12T12:33:19;2.03;;;1.93;;
15049;SDS011;7622;42.724;23.250;2023-03-12T12:35:56;3.40;;;2.10;;
15049;SDS011;7622;42.724;23.250;2023-03-12T12:38:25;2.43;;;1.60;;
15049;SDS011;7622;42.724;23.250;2023-03-12T12:40:59;1.63;;;1.53;;
15049;SDS011;7622;42.724;23.250;2023-03-12T12:43:31;2.60;;;1.87;;
15049;SDS011;7622;42.724;23.250;2023-03-12T12:46:04;1.90;;;1.80;;
15049;SDS011;7622;42.724;23.250;2023-03-12T12:48:35;1.93;;;1.83;;
15049;SDS011;7622;42.724;23.250;2023-03-12T12:51:04;3.97;;;1.90;;
15049;SDS011;7622;42.724;23.250;2023-03-12T12:53:35;2.50;;;1.60;;
15049;SDS011;7622;42.724;23.250;2023-03-12T12:56:10;1.53;;;1.47;;
15049;SDS011;7622;42.724;23.250;2023-03-12T12:58:46;1.83;;;1.73;;
15049;SDS011;7622;42.724;23.250;2023-03-12T13:01:24;2.63;;;1.90;;
15049;SDS011;7622;42.724;23.250;2023-03-12T13:03:51;2.60;;;1.50;;
15049;SDS011;7622;42.724;23.250;2023-03-12T13:06:26;1.97;;;1.87;;
15049;SDS011;7622;42.724;23.250;2023-03-12T13:09:03;1.80;;;1.70;;
15049;SDS011;7622;42.724;23.250;2023-03-12T13:11:42;1.70;;;1.60;;
15049;SDS011;7622;42.724;23.250;2023-03-12T13:14:11;1.60;;;1.50;;
15049;SDS011;7622;42.724;23.250;2023-03-12T13:17:17;4.77;;;3.57;;
15049;SDS011;7622;42.724;23.250;2023-03-12T13:19:50;1.80;;;1.70;;
15049;SDS011;7622;42.724;23.250;2023-03-12T13:22:26;1.83;;;1.73;;
15049;SDS011;7622;42.724;23.250;2023-03-12T13:25:07;1.90;;;1.80;;
15049;SDS011;7622;42.724;23.250;2023-03-12T13:27:44;1.90;;;1.80;;
15049;SDS011;7622;42.724;23.250;2023-03-12T13:30:26;2.10;;;1.50;;
15049;SDS011;7622;42.724;23.250;2023-03-12T13:33:13;3.33;;;1.83;;
15049;SDS011;7622;42.724;23.250;2023-03-12T13:35:42;3.30;;;1.90;;
15049;SDS011;7622;42.724;23.250;2023-03-12T13:38:16;5.47;;;1.60;;
15049;SDS011;7622;42.724;23.250;2023-03-12T13:40:59;1.90;;;1.70;;
15049;SDS011;7622;42.724;23.250;2023-03-12T13:43:30;1.83;;;1.73;;
15049;SDS011;7622;42.724;23.250;2023-03-12T13:46:06;2.00;;;1.90;;
15049;SDS011;7622;42.724;23.250;2023-03-12T13:48:47;2.00;;;1.90;;
15049;SDS011;7622;42.724;23.250;2023-03-12T13:51:15;1.60;;;1.50;;
15049;SDS011;7622;42.724;23.250;2023-03-12T13:53:46;1.90;;;1.80;;
15049;SDS011;7622;42.724;23.250;2023-03-12T13:56:16;1.83;;;1.73;;
15049;SDS011;7622;42.724;23.250;2023-03-12T13:58:47;3.63;;;1.77;;
15049;SDS011;7622;42.724;23.250;2023-03-12T14:01:22;1.90;;;1.57;;
15049;SDS011;7622;42.724;23.250;2023-03-12T14:03:56;1.70;;;1.60;;
15049;SDS011;7622;42.724;23.250;2023-03-12T14:06:27;3.00;;;1.70;;
15049;SDS011;7622;42.724;23.250;2023-03-12T14:09:04;3.07;;;1.50;;
15049;SDS011;7622;42.724;23.250;2023-03-12T14:11:46;3.87;;;1.70;;
15049;SDS011;7622;42.724;23.250;2023-03-12T14:17:13;1.63;;;1.53;;
15049;SDS011;7622;42.724;23.250;2023-03-12T14:19:46;1.97;;;1.87;;
15049;SDS011;7622;42.724;23.250;2023-03-12T14:22:16;7.03;;;2.17;;
15049;SDS011;7622;42.724;23.250;2023-03-12T14:24:47;2.87;;;1.87;;
15049;SDS011;7622;42.724;23.250;2023-03-12T14:27:19;1.70;;;1.60;;
15049;SDS011;7622;42.724;23.250;2023-03-12T14:29:51;1.70;;;1.60;;
15049;SDS011;7622;42.724;23.250;2023-03-12T14:32:23;1.80;;;1.70;;
15049;SDS011;7622;42.724;23.250;2023-03-12T14:34:56;1.77;;;1.67;;
15049;SDS011;7622;42.724;23.250;2023-03-12T14:37:30;4.23;;;1.93;;
15049;SDS011;7622;42.724;23.250;2023-03-12T14:40:01;2.60;;;1.70;;
15049;SDS011;7622;42.724;23.250;2023-03-12T14:42:34;1.47;;;1.37;;
15049;SDS011;7622;42.724;23.250;2023-03-12T14:45:02;1.70;;;1.60;;
15049;SDS011;7622;42.724;23.250;2023-03-12T14:47:38;1.83;;;1.73;;
15049;SDS011;7622;42.724;23.250;2023-03-12T14:50:15;1.80;;;1.70;;
15049;SDS011;7622;42.724;23.250;2023-03-12T14:52:43;1.63;;;1.53;;
15049;SDS011;7622;42.724;23.250;2023-03-12T14:55:12;1.87;;;1.73;;
15049;SDS011;7622;42.724;23.250;2023-03-12T14:57:42;1.73;;;1.63;;
15049;SDS011;7622;42.724;23.250;2023-03-12T15:00:13;4.50;;;2.63;;
15049;SDS011;7622;42.724;23.250;2023-03-12T15:02:47;1.67;;;1.57;;
15049;SDS011;7622;42.724;23.250;2023-03-12T15:05:16;2.77;;;1.77;;
15049;SDS011;7622;42.724;23.250;2023-03-12T15:07:44;1.73;;;1.63;;
15049;SDS011;7622;42.724;23.250;2023-03-12T15:10:17;6.20;;;1.90;;
15049;SDS011;7622;42.724;23.250;2023-03-12T15:12:47;1.60;;;1.50;;
15049;SDS011;7622;42.724;23.250;2023-03-12T15:15:29;1.70;;;1.60;;
15049;SDS011;7622;42.724;23.250;2023-03-12T15:18:03;2.13;;;1.70;;
15049;SDS011;7622;42.724;23.250;2023-03-12T15:20:33;2.87;;;2.03;;